createdAt,value
2022-12-16T00:01:27.757Z,10.73
2022-12-16T00:03:31.146Z,10.27
2022-12-16T00:05:42.714Z,10.80
2022-12-16T00:07:47.404Z,10.67
2022-12-16T00:09:50.371Z,11.03
2022-12-16T00:11:54.738Z,10.90
2022-12-16T00:13:57.765Z,10.80
2022-12-16T00:16:06.384Z,10.43
2022-12-16T00:18:09.604Z,11.13
2022-12-16T00:20:13.546Z,11.23
2022-12-16T00:22:16.586Z,10.53
2022-12-16T00:24:19.726Z,10.27
2022-12-16T00:26:22.720Z,10.47
2022-12-16T00:28:26.120Z,10.53
2022-12-16T00:30:29.026Z,10.40
2022-12-16T00:32:33.370Z,11.00
2022-12-16T00:34:36.249Z,8.50
2022-12-16T00:36:39.138Z,10.20
2022-12-16T00:38:42.117Z,8.80
2022-12-16T00:40:45.667Z,10.10
2022-12-16T00:42:48.548Z,9.90
2022-12-16T00:44:51.511Z,10.03
2022-12-16T00:46:54.991Z,10.10
2022-12-16T00:48:59.799Z,8.50
2022-12-16T00:51:02.800Z,7.83
2022-12-16T00:53:06.509Z,8.60
2022-12-16T00:55:10.307Z,9.03
2022-12-16T00:57:13.247Z,9.67
2022-12-16T00:59:16.356Z,9.37
2022-12-16T01:01:19.821Z,8.87
2022-12-16T01:03:22.831Z,8.90
2022-12-16T01:05:27.772Z,9.23
2022-12-16T01:07:30.810Z,9.20
2022-12-16T01:09:34.984Z,9.13
2022-12-16T01:11:37.813Z,9.50
2022-12-16T01:13:40.774Z,9.87
2022-12-16T01:15:43.876Z,9.57
2022-12-16T01:17:47.314Z,9.90
2022-12-16T01:19:50.335Z,9.33
2022-12-16T01:21:54.737Z,10.23
2022-12-16T01:23:57.850Z,10.63
2022-12-16T01:26:02.523Z,11.00
2022-12-16T01:28:05.691Z,9.97
2022-12-16T01:30:10.104Z,10.10
2022-12-16T01:32:14.784Z,10.07
2022-12-16T01:34:18.167Z,10.47
2022-12-16T01:36:21.687Z,9.83
2022-12-16T01:38:26.057Z,10.77
2022-12-16T01:40:29.081Z,11.47
2022-12-16T01:42:33.594Z,11.57
2022-12-16T01:44:36.594Z,11.63
2022-12-16T01:46:39.609Z,11.47
2022-12-16T01:48:47.784Z,11.20
2022-12-16T01:50:53.185Z,12.40
2022-12-16T01:53:00.145Z,11.10
2022-12-16T01:55:09.446Z,11.97
2022-12-16T01:57:16.914Z,11.30
2022-12-16T01:59:21.166Z,10.67
2022-12-16T02:01:24.661Z,10.50
2022-12-16T02:03:31.119Z,10.73
2022-12-16T02:05:35.661Z,11.23
2022-12-16T02:07:38.659Z,10.80
2022-12-16T02:09:41.560Z,11.17
2022-12-16T02:12:13.301Z,10.70
2022-12-16T02:14:40.498Z,11.00
2022-12-16T02:16:52.651Z,10.57
2022-12-16T02:19:11.088Z,11.13
2022-12-16T02:21:49.064Z,10.83
2022-12-16T02:24:25.839Z,10.53
2022-12-16T02:26:47.123Z,8.17
2022-12-16T02:29:22.902Z,9.70
2022-12-16T02:31:35.004Z,10.40
2022-12-16T02:33:56.128Z,9.80
2022-12-16T02:36:07.997Z,10.00
2022-12-16T02:38:22.804Z,9.60
2022-12-16T02:40:29.319Z,9.17
2022-12-16T02:42:35.625Z,8.73
2022-12-16T02:44:56.205Z,9.13
2022-12-16T02:47:00.458Z,8.83
2022-12-16T02:49:08.352Z,9.27
2022-12-16T02:51:11.683Z,8.27
2022-12-16T02:53:14.845Z,8.23
2022-12-16T02:55:18.523Z,7.53
2022-12-16T02:58:01.286Z,8.43
2022-12-16T03:00:07.865Z,8.07
2022-12-16T03:02:20.492Z,8.57
2022-12-16T03:04:29.393Z,7.90
2022-12-16T03:06:34.307Z,7.10
2022-12-16T03:08:41.678Z,7.73
2022-12-16T03:10:54.812Z,8.37
2022-12-16T03:13:00.800Z,7.80
2022-12-16T03:15:04.683Z,7.83
2022-12-16T03:17:09.668Z,7.50
2022-12-16T03:19:14.693Z,7.13
2022-12-16T03:21:19.279Z,8.13
2022-12-16T03:23:29.231Z,8.00
2022-12-16T03:25:35.624Z,7.50
2022-12-16T03:27:47.169Z,7.77
2022-12-16T03:29:55.388Z,8.80
2022-12-16T03:32:03.241Z,9.57
2022-12-16T03:34:13.730Z,8.87
2022-12-16T03:36:22.906Z,8.90
2022-12-16T03:38:27.765Z,9.00
2022-12-16T03:40:32.993Z,8.23
2022-12-16T03:42:37.463Z,8.73
2022-12-16T03:44:40.599Z,9.70
2022-12-16T03:46:43.597Z,9.67
2022-12-16T03:48:48.181Z,9.23
2022-12-16T03:50:51.321Z,9.00
2022-12-16T03:52:55.820Z,8.50
2022-12-16T03:54:58.885Z,8.37
2022-12-16T03:57:01.952Z,7.60
2022-12-16T03:59:04.936Z,8.13
2022-12-16T04:01:09.518Z,7.80
2022-12-16T04:03:12.647Z,7.50
2022-12-16T04:05:16.121Z,7.90
2022-12-16T04:07:21.682Z,8.03
2022-12-16T04:09:25.970Z,6.30
2022-12-16T04:11:46.500Z,6.67
2022-12-16T04:14:07.004Z,6.63
2022-12-16T04:16:29.708Z,7.27
2022-12-16T04:18:51.092Z,6.83
2022-12-16T04:21:14.142Z,6.87
2022-12-16T04:23:35.602Z,7.57
2022-12-16T04:25:40.204Z,7.30
2022-12-16T04:27:47.127Z,7.03
2022-12-16T04:30:07.902Z,7.20
2022-12-16T04:32:11.098Z,7.47
2022-12-16T04:34:29.392Z,7.67
2022-12-16T04:36:50.187Z,6.47
2022-12-16T04:39:19.436Z,6.07
2022-12-16T04:41:41.037Z,6.63
2022-12-16T04:44:01.951Z,6.27
2022-12-16T04:46:22.663Z,6.73
2022-12-16T04:48:43.123Z,7.87
2022-12-16T04:51:03.998Z,7.40
2022-12-16T04:53:24.532Z,6.90
2022-12-16T04:55:44.843Z,10.17
2022-12-16T04:58:21.201Z,7.97
2022-12-16T05:00:55.913Z,6.83
2022-12-16T05:03:16.617Z,6.70
2022-12-16T05:05:33.520Z,7.67
2022-12-16T05:07:53.904Z,18.77
2022-12-16T05:10:14.629Z,19.53
2022-12-16T05:12:34.951Z,14.17
2022-12-16T05:14:57.151Z,8.83
2022-12-16T05:17:17.765Z,10.97
2022-12-16T05:19:38.476Z,10.10
2022-12-16T05:22:01.235Z,9.13
2022-12-16T05:24:21.887Z,9.13
2022-12-16T05:26:42.087Z,10.53
2022-12-16T05:29:02.343Z,9.30
2022-12-16T05:31:24.061Z,9.53
2022-12-16T05:33:44.825Z,9.60
2022-12-16T05:36:05.296Z,10.00
2022-12-16T05:38:25.577Z,10.33
2022-12-16T05:40:45.328Z,10.23
2022-12-16T05:43:06.549Z,10.13
2022-12-16T05:45:27.138Z,10.77
2022-12-16T05:47:48.633Z,10.07
2022-12-16T05:50:08.850Z,11.40
2022-12-16T05:52:29.614Z,12.07
2022-12-16T05:54:50.053Z,10.80
2022-12-16T05:57:10.507Z,12.00
2022-12-16T05:59:36.241Z,12.07
2022-12-16T06:01:56.616Z,11.30
2022-12-16T06:04:18.758Z,11.23
2022-12-16T06:06:39.413Z,12.27
2022-12-16T06:09:00.055Z,12.27
2022-12-16T06:11:20.557Z,13.43
2022-12-16T06:13:40.883Z,13.03
2022-12-16T06:16:06.639Z,13.30
2022-12-16T06:18:28.639Z,15.77
2022-12-16T06:20:46.894Z,24.27
2022-12-16T06:23:10.042Z,15.57
2022-12-16T06:25:30.665Z,18.93
2022-12-16T06:27:51.260Z,18.80
2022-12-16T06:30:13.791Z,17.83
2022-12-16T06:32:34.650Z,15.47
2022-12-16T06:34:55.086Z,14.50
2022-12-16T06:37:16.911Z,14.47
2022-12-16T06:39:37.359Z,17.63
2022-12-16T06:41:57.646Z,17.30
2022-12-16T06:44:18.245Z,18.20
2022-12-16T06:46:38.448Z,16.30
2022-12-16T06:48:58.794Z,16.43
2022-12-16T06:51:19.314Z,18.03
2022-12-16T06:53:41.473Z,17.47
2022-12-16T06:56:02.008Z,16.27
2022-12-16T06:58:22.441Z,16.47
2022-12-16T07:00:43.136Z,17.20
2022-12-16T07:03:04.579Z,17.13
2022-12-16T07:05:25.416Z,16.40
2022-12-16T07:07:46.002Z,16.53
2022-12-16T07:10:07.630Z,16.57
2022-12-16T07:12:28.088Z,18.57
2022-12-16T07:14:48.462Z,19.27
2022-12-16T07:17:12.395Z,17.33
2022-12-16T07:19:37.227Z,18.80
2022-12-16T07:22:00.035Z,15.37
2022-12-16T07:24:20.541Z,18.57
2022-12-16T07:26:42.194Z,17.50
2022-12-16T07:29:14.076Z,19.23
2022-12-16T07:31:35.079Z,16.47
2022-12-16T07:33:55.476Z,16.03
2022-12-16T07:36:15.834Z,17.67
2022-12-16T07:38:36.232Z,16.87
2022-12-16T07:40:57.094Z,15.30
2022-12-16T07:43:19.071Z,16.33
2022-12-16T07:45:44.897Z,16.77
2022-12-16T07:48:06.019Z,15.63
2022-12-16T07:50:27.409Z,15.93
2022-12-16T07:52:49.750Z,14.10
2022-12-16T07:55:11.432Z,14.37
2022-12-16T07:57:32.081Z,13.40
2022-12-16T07:59:54.053Z,12.33
2022-12-16T08:02:14.544Z,8.70
2022-12-16T08:04:34.918Z,8.27
2022-12-16T08:06:55.388Z,6.90
2022-12-16T08:09:15.897Z,6.97
2022-12-16T08:11:36.206Z,6.10
2022-12-16T08:13:59.045Z,6.50
2022-12-16T08:16:35.427Z,6.70
2022-12-16T08:18:56.897Z,7.00
2022-12-16T08:21:17.551Z,7.10
2022-12-16T08:23:37.958Z,6.13
2022-12-16T08:25:58.340Z,7.13
2022-12-16T08:28:19.111Z,7.03
2022-12-16T08:30:39.497Z,7.80
2022-12-16T08:33:09.436Z,9.03
2022-12-16T08:35:35.956Z,8.03
2022-12-16T08:37:56.307Z,12.73
2022-12-16T08:40:34.940Z,8.57
2022-12-16T08:42:56.360Z,7.43
2022-12-16T08:45:16.860Z,7.90
2022-12-16T08:47:37.561Z,7.67
2022-12-16T08:50:01.723Z,8.00
2022-12-16T08:52:28.729Z,8.53
2022-12-16T08:54:48.978Z,8.27
2022-12-16T08:57:09.286Z,7.90
2022-12-16T08:59:29.788Z,6.90
2022-12-16T09:01:50.506Z,8.03
2022-12-16T09:04:13.932Z,8.23
2022-12-16T09:06:40.440Z,8.03
2022-12-16T09:09:01.414Z,7.80
2022-12-16T09:11:21.722Z,8.47
2022-12-16T09:13:42.028Z,7.90
2022-12-16T09:16:02.649Z,6.67
2022-12-16T09:18:19.593Z,6.43
2022-12-16T09:20:39.942Z,7.60
2022-12-16T09:23:01.954Z,7.63
2022-12-16T09:25:22.702Z,7.43
2022-12-16T09:27:43.273Z,8.03
2022-12-16T09:30:03.576Z,14.20
2022-12-16T09:32:24.021Z,10.30
2022-12-16T09:34:44.607Z,7.90
2022-12-16T09:37:05.234Z,7.40
2022-12-16T09:39:26.819Z,7.30
2022-12-16T09:42:01.120Z,6.70
2022-12-16T09:44:28.605Z,6.43
2022-12-16T09:47:02.088Z,6.50
2022-12-16T09:49:35.955Z,7.60
2022-12-16T09:52:05.742Z,6.17
2022-12-16T09:54:33.622Z,6.00
2022-12-16T09:56:55.475Z,5.70
2022-12-16T09:59:19.965Z,5.97
2022-12-16T10:01:41.223Z,6.03
2022-12-16T10:04:01.944Z,5.73
2022-12-16T10:06:30.410Z,5.90
2022-12-16T10:08:58.759Z,5.97
2022-12-16T10:11:30.702Z,5.77
2022-12-16T10:13:58.835Z,5.37
2022-12-16T10:16:27.320Z,6.10
2022-12-16T10:19:00.573Z,6.43
2022-12-16T10:21:22.608Z,5.87
2022-12-16T10:23:50.343Z,6.10
2022-12-16T10:26:16.579Z,6.23
2022-12-16T10:28:53.886Z,6.00
2022-12-16T10:31:16.561Z,6.07
2022-12-16T10:33:39.325Z,7.97
2022-12-16T10:36:04.431Z,8.33
2022-12-16T10:38:33.223Z,8.33
2022-12-16T10:40:54.303Z,9.50
2022-12-16T10:43:31.220Z,10.03
2022-12-16T10:45:56.503Z,9.63
2022-12-16T10:48:16.974Z,8.77
2022-12-16T10:50:37.421Z,24.03
2022-12-16T10:53:08.099Z,9.73
2022-12-16T10:55:43.665Z,8.57
2022-12-16T10:58:15.121Z,11.40
2022-12-16T11:00:38.853Z,9.37
2022-12-16T11:03:03.089Z,7.70
2022-12-16T11:05:50.227Z,9.27
2022-12-16T11:08:08.363Z,9.87
2022-12-16T11:10:54.459Z,10.53
2022-12-16T11:13:38.761Z,9.93
2022-12-16T11:16:02.586Z,10.37
2022-12-16T11:18:28.514Z,9.57
2022-12-16T11:20:49.125Z,8.97
2022-12-16T11:23:27.172Z,9.50
2022-12-16T11:25:47.606Z,8.63
2022-12-16T11:28:08.042Z,8.87
2022-12-16T11:30:37.619Z,9.20
2022-12-16T11:33:02.349Z,8.90
2022-12-16T11:35:30.045Z,9.23
2022-12-16T11:37:50.568Z,8.67
2022-12-16T11:40:10.921Z,8.73
2022-12-16T11:42:39.968Z,9.73
2022-12-16T11:45:05.498Z,10.90
2022-12-16T11:47:34.799Z,7.93
2022-12-16T11:49:55.376Z,8.90
2022-12-16T11:52:36.741Z,9.77
2022-12-16T11:55:08.732Z,10.37
2022-12-16T11:57:37.744Z,11.17
2022-12-16T12:00:00.797Z,11.73
2022-12-16T12:02:28.784Z,10.03
2022-12-16T12:04:49.316Z,12.13
2022-12-16T12:07:25.026Z,12.40
2022-12-16T12:09:46.898Z,12.47
2022-12-16T12:12:13.198Z,14.77
2022-12-16T12:14:56.500Z,16.10
2022-12-16T12:17:29.897Z,13.47
2022-12-16T12:20:01.941Z,13.27
2022-12-16T12:22:31.341Z,12.67
2022-12-16T12:25:01.133Z,12.47
2022-12-16T12:27:27.580Z,11.40
2022-12-16T12:30:01.522Z,14.00
2022-12-16T12:32:29.964Z,14.03
2022-12-16T12:34:59.170Z,13.80
2022-12-16T12:37:27.130Z,13.57
2022-12-16T12:39:53.775Z,11.77
2022-12-16T12:42:28.495Z,12.30
2022-12-16T12:45:10.712Z,12.93
2022-12-16T12:47:31.974Z,11.13
2022-12-16T12:50:00.826Z,12.73
2022-12-16T12:52:30.306Z,12.77
2022-12-16T12:54:56.431Z,12.47
2022-12-16T12:57:19.008Z,14.63
2022-12-16T12:59:43.006Z,14.17
2022-12-16T13:02:06.082Z,13.00
2022-12-16T13:04:31.976Z,14.23
2022-12-16T13:06:54.249Z,14.23
2022-12-16T13:09:23.910Z,13.63
2022-12-16T13:11:44.000Z,13.90
2022-12-16T13:14:04.353Z,13.50
2022-12-16T13:16:29.787Z,16.17
2022-12-16T13:18:51.009Z,12.80
2022-12-16T13:21:13.843Z,15.43
2022-12-16T13:23:56.306Z,15.23
2022-12-16T13:26:23.808Z,14.30
2022-12-16T13:28:47.884Z,13.37
2022-12-16T13:31:25.184Z,13.00
2022-12-16T13:33:48.098Z,11.80
2022-12-16T13:36:13.545Z,10.47
2022-12-16T13:38:40.047Z,11.90
2022-12-16T13:41:12.862Z,12.63
2022-12-16T13:44:03.747Z,12.10
2022-12-16T13:46:35.856Z,11.97
2022-12-16T13:48:58.504Z,11.67
2022-12-16T13:51:19.357Z,11.17
2022-12-16T13:53:41.639Z,11.30
2022-12-16T13:56:13.237Z,9.63
2022-12-16T13:58:48.290Z,9.87
2022-12-16T14:01:21.601Z,9.73
2022-12-16T14:03:54.496Z,10.80
2022-12-16T14:06:14.853Z,10.57
2022-12-16T14:08:37.953Z,10.80
2022-12-16T14:11:01.435Z,12.10
2022-12-16T14:13:25.803Z,16.50
2022-12-16T14:15:52.811Z,12.90
2022-12-16T14:18:18.289Z,11.90
2022-12-16T14:20:44.296Z,11.07
2022-12-16T14:23:32.369Z,10.50
2022-12-16T14:25:54.716Z,9.80
2022-12-16T14:28:16.825Z,9.87
2022-12-16T14:30:40.148Z,9.50
2022-12-16T14:33:02.208Z,9.70
2022-12-16T14:35:25.633Z,11.33
2022-12-16T14:37:53.067Z,9.67
2022-12-16T14:40:14.623Z,14.67
2022-12-16T14:42:38.972Z,15.43
2022-12-16T14:45:02.888Z,46.77
2022-12-16T14:47:22.847Z,36.57
2022-12-16T14:49:48.762Z,41.53
2022-12-16T14:52:09.583Z,31.27
2022-12-16T14:54:42.911Z,32.13
2022-12-16T14:57:05.631Z,30.87
2022-12-16T14:59:32.426Z,18.50
2022-12-16T15:01:54.225Z,14.10
2022-12-16T15:04:15.530Z,14.53
2022-12-16T15:06:44.565Z,13.43
2022-12-16T15:09:08.986Z,16.63
2022-12-16T15:11:33.365Z,17.07
2022-12-16T15:13:57.819Z,19.40
2022-12-16T15:16:23.303Z,15.10
2022-12-16T15:18:49.390Z,13.80
2022-12-16T15:21:11.739Z,12.37
2022-12-16T15:23:39.770Z,12.90
2022-12-16T15:26:05.796Z,13.20
2022-12-16T15:28:42.444Z,14.43
2022-12-16T15:31:04.876Z,13.93
2022-12-16T15:33:25.390Z,12.90
2022-12-16T15:35:52.386Z,13.67
2022-12-16T15:38:16.053Z,14.30
2022-12-16T15:40:44.586Z,13.73
2022-12-16T15:43:09.653Z,15.80
2022-12-16T15:45:41.536Z,15.47
2022-12-16T15:48:01.921Z,17.23
2022-12-16T15:50:24.944Z,17.43
2022-12-16T15:52:53.460Z,16.63
2022-12-16T15:55:13.644Z,19.17
2022-12-16T15:57:47.517Z,18.67
2022-12-16T16:00:15.710Z,20.87
2022-12-16T16:02:41.172Z,19.73
2022-12-16T16:05:01.903Z,18.83
2022-12-16T16:07:22.479Z,19.33
2022-12-16T16:09:45.627Z,18.20
2022-12-16T16:12:06.151Z,17.80
2022-12-16T16:14:44.101Z,17.90
2022-12-16T16:17:07.776Z,17.73
2022-12-16T16:19:39.067Z,16.77
2022-12-16T16:21:59.302Z,16.17
2022-12-16T16:24:19.987Z,18.00
2022-12-16T16:26:45.250Z,17.07
2022-12-16T16:29:05.624Z,15.67
2022-12-16T16:31:29.198Z,17.43
2022-12-16T16:33:49.681Z,18.07
2022-12-16T16:36:10.090Z,20.23
2022-12-16T16:38:31.161Z,20.43
2022-12-16T16:40:55.580Z,17.70
2022-12-16T16:43:15.961Z,15.97
2022-12-16T16:45:36.441Z,18.03
2022-12-16T16:47:58.377Z,18.93
2022-12-16T16:50:19.606Z,18.70
2022-12-16T16:52:43.185Z,18.33
2022-12-16T16:55:03.656Z,18.40
2022-12-16T16:57:24.688Z,17.50
2022-12-16T16:59:45.089Z,16.13
2022-12-16T17:02:05.963Z,16.20
2022-12-16T17:04:27.738Z,15.67
2022-12-16T17:06:48.378Z,16.47
2022-12-16T17:09:08.963Z,17.97
2022-12-16T17:11:37.011Z,18.07
2022-12-16T17:13:57.410Z,18.67
2022-12-16T17:16:17.923Z,17.23
2022-12-16T17:18:43.737Z,17.80
2022-12-16T17:21:07.153Z,17.00
2022-12-16T17:23:27.386Z,16.20
2022-12-16T17:25:48.144Z,15.97
2022-12-16T17:28:08.813Z,16.10
2022-12-16T17:30:34.555Z,14.63
2022-12-16T17:32:55.074Z,15.07
2022-12-16T17:35:16.300Z,14.73
2022-12-16T17:38:01.257Z,20.13
2022-12-16T17:40:22.174Z,15.33
2022-12-16T17:42:46.481Z,14.93
2022-12-16T17:45:07.533Z,13.10
2022-12-16T17:47:27.854Z,16.57
2022-12-16T17:49:48.134Z,14.33
2022-12-16T17:52:08.727Z,15.20
2022-12-16T17:54:30.595Z,14.03
2022-12-16T17:56:51.010Z,14.33
2022-12-16T17:59:11.588Z,13.10
2022-12-16T18:01:32.157Z,11.80
2022-12-16T18:03:52.729Z,10.47
2022-12-16T18:06:15.185Z,10.10
2022-12-16T18:08:36.103Z,11.90
2022-12-16T18:10:59.441Z,11.67
2022-12-16T18:13:19.989Z,12.47
2022-12-16T18:15:40.304Z,12.50
2022-12-16T18:18:00.812Z,14.30
2022-12-16T18:20:21.345Z,13.30
2022-12-16T18:22:41.664Z,13.60
2022-12-16T18:25:02.241Z,16.50
2022-12-16T18:27:24.155Z,19.37
2022-12-16T18:29:44.373Z,19.27
2022-12-16T18:32:06.494Z,23.00
2022-12-16T18:34:27.028Z,22.63
2022-12-16T18:36:47.231Z,21.60
2022-12-16T18:39:07.820Z,25.03
2022-12-16T18:41:34.490Z,17.77
2022-12-16T18:44:04.568Z,18.07
2022-12-16T18:46:24.995Z,17.07
2022-12-16T18:48:45.576Z,17.57
2022-12-16T18:51:12.123Z,16.53
2022-12-16T18:53:33.108Z,16.43
2022-12-16T18:55:53.685Z,18.67
2022-12-16T18:58:34.801Z,18.67
2022-12-16T19:00:56.252Z,18.67
2022-12-16T19:03:16.839Z,20.23
2022-12-16T19:05:37.531Z,19.70
2022-12-16T19:07:58.052Z,18.37
2022-12-16T19:10:18.625Z,16.30
2022-12-16T19:12:39.275Z,15.80
2022-12-16T19:14:59.584Z,16.67
2022-12-16T19:17:21.441Z,17.27
2022-12-16T19:19:41.700Z,17.83
2022-12-16T19:22:02.271Z,17.23
2022-12-16T19:24:23.380Z,17.00
2022-12-16T19:26:43.945Z,19.17
2022-12-16T19:29:04.708Z,15.23
2022-12-16T19:31:29.530Z,18.03
2022-12-16T19:33:56.674Z,18.07
2022-12-16T19:36:17.452Z,17.07
2022-12-16T19:38:38.833Z,17.27
2022-12-16T19:41:13.323Z,12.97
2022-12-16T19:43:34.627Z,16.17
2022-12-16T19:45:56.264Z,13.10
2022-12-16T19:48:20.518Z,17.47
2022-12-16T19:50:56.405Z,13.57
2022-12-16T19:53:19.553Z,14.40
2022-12-16T19:55:39.835Z,13.87
2022-12-16T19:58:00.084Z,12.37
2022-12-16T20:00:20.312Z,13.63
2022-12-16T20:02:40.241Z,13.00
2022-12-16T20:05:00.782Z,14.87
2022-12-16T20:07:23.465Z,14.80
2022-12-16T20:09:44.007Z,13.00
2022-12-16T20:12:04.451Z,12.83
2022-12-16T20:14:27.541Z,13.63
2022-12-16T20:16:48.153Z,12.13
2022-12-16T20:19:08.513Z,12.37
2022-12-16T20:21:29.916Z,12.03
2022-12-16T20:23:53.736Z,11.50
2022-12-16T20:26:15.904Z,11.67
2022-12-16T20:28:51.027Z,13.43
2022-12-16T20:31:12.346Z,12.93
2022-12-16T20:33:34.232Z,15.77
2022-12-16T20:35:56.133Z,14.93
2022-12-16T20:38:16.908Z,13.00
2022-12-16T20:40:46.843Z,13.73
2022-12-16T20:43:07.115Z,13.93
2022-12-16T20:45:28.721Z,14.53
2022-12-16T20:47:49.022Z,13.63
2022-12-16T20:50:09.286Z,15.47
2022-12-16T20:52:29.826Z,15.03
2022-12-16T20:54:58.639Z,14.73
2022-12-16T20:57:20.484Z,15.40
2022-12-16T20:59:41.168Z,15.50
2022-12-16T21:02:22.553Z,17.17
2022-12-16T21:04:41.540Z,18.37
2022-12-16T21:07:01.854Z,17.67
2022-12-16T21:09:22.689Z,19.37
2022-12-16T21:11:43.251Z,18.63
2022-12-16T21:14:05.534Z,18.67
2022-12-16T21:16:25.896Z,18.27
2022-12-16T21:18:46.301Z,17.40
2022-12-16T21:21:10.897Z,17.40
2022-12-16T21:23:31.298Z,17.00
2022-12-16T21:25:51.741Z,17.17
2022-12-16T21:28:15.199Z,17.27
2022-12-16T21:30:37.271Z,18.07
2022-12-16T21:32:57.624Z,17.20
2022-12-16T21:35:18.663Z,19.27
2022-12-16T21:37:39.064Z,18.17
2022-12-16T21:40:01.210Z,18.10
2022-12-16T21:42:21.659Z,20.90
2022-12-16T21:44:42.070Z,20.90
2022-12-16T21:47:03.655Z,21.47
2022-12-16T21:49:35.628Z,22.70
2022-12-16T21:51:56.608Z,23.53
2022-12-16T21:54:17.909Z,24.23
2022-12-16T21:56:38.106Z,23.03
2022-12-16T21:58:58.520Z,23.47
2022-12-16T22:01:19.296Z,22.47
2022-12-16T22:03:41.357Z,22.23
2022-12-16T22:06:02.189Z,20.03
2022-12-16T22:08:25.123Z,20.10
2022-12-16T22:10:45.644Z,20.37
2022-12-16T22:13:05.983Z,19.73
2022-12-16T22:15:27.675Z,19.53
2022-12-16T22:17:51.746Z,19.57
2022-12-16T22:20:16.638Z,20.50
2022-12-16T22:22:33.698Z,21.00
2022-12-16T22:24:54.357Z,22.03
2022-12-16T22:27:17.493Z,21.10
2022-12-16T22:29:52.403Z,21.00
2022-12-16T22:32:16.724Z,18.77
2022-12-16T22:34:36.976Z,18.03
2022-12-16T22:36:58.635Z,18.47
2022-12-16T22:39:19.184Z,19.03
2022-12-16T22:41:39.824Z,19.00
2022-12-16T22:44:01.788Z,18.67
2022-12-16T22:46:22.432Z,18.57
2022-12-16T22:48:42.975Z,16.70
2022-12-16T22:51:03.201Z,17.23
2022-12-16T22:53:24.773Z,17.53
2022-12-16T22:55:45.344Z,16.97
2022-12-16T22:58:17.259Z,20.63
2022-12-16T23:00:38.081Z,19.23
2022-12-16T23:02:58.699Z,20.03
2022-12-16T23:05:25.365Z,19.97
2022-12-16T23:07:47.957Z,20.40
2022-12-16T23:10:09.648Z,20.83
2022-12-16T23:12:30.182Z,19.17
2022-12-16T23:14:50.852Z,20.40
2022-12-16T23:17:12.103Z,18.03
2022-12-16T23:19:32.526Z,19.17
2022-12-16T23:21:53.022Z,18.63
2022-12-16T23:24:14.491Z,18.87
2022-12-16T23:26:36.548Z,18.77
2022-12-16T23:28:56.819Z,18.13
2022-12-16T23:31:17.348Z,18.63
2022-12-16T23:33:37.882Z,17.50
2022-12-16T23:35:58.250Z,18.07
2022-12-16T23:38:28.516Z,18.40
2022-12-16T23:40:48.841Z,18.40
2022-12-16T23:43:13.039Z,16.70
2022-12-16T23:45:33.725Z,18.03
2022-12-16T23:47:54.279Z,18.20
2022-12-16T23:50:16.764Z,17.23
2022-12-16T23:52:37.290Z,17.93
2022-12-16T23:54:57.627Z,16.73
2022-12-16T23:57:17.919Z,17.23
2022-12-16T23:59:39.784Z,16.70
